createdAt,value
2022-11-08T00:02:07.378Z,98735.38
2022-11-08T00:05:28.790Z,98729.59
2022-11-08T00:08:50.353Z,98735.91
2022-11-08T00:12:10.955Z,98741.09
2022-11-08T00:15:14.925Z,98739.47
2022-11-08T00:18:19.824Z,98736.72
2022-11-08T00:21:24.096Z,98739.47
2022-11-08T00:24:27.812Z,98737.84
2022-11-08T00:27:31.873Z,98738.66
2022-11-08T00:30:35.093Z,98738.66
2022-11-08T00:33:40.164Z,98739.47
2022-11-08T00:36:43.452Z,98743.31
2022-11-08T00:39:48.015Z,98744.94
2022-11-08T00:42:51.336Z,98740.28
2022-11-08T00:45:55.152Z,98750.16
2022-11-08T00:48:59.709Z,98741.91
2022-11-08T00:52:03.950Z,98747.41
2022-11-08T00:55:08.458Z,98739.19
2022-11-08T00:58:12.497Z,98743.84
2022-11-08T01:01:20.497Z,98739.47
2022-11-08T01:04:25.816Z,98738.94
2022-11-08T01:07:29.152Z,98743.59
2022-11-08T01:10:33.423Z,98739.22
2022-11-08T01:13:36.955Z,98738.41
2022-11-08T01:16:41.628Z,98739.22
2022-11-08T01:19:46.504Z,98735.66
2022-11-08T01:22:50.668Z,98736.19
2022-11-08T01:25:53.872Z,98731.53
2022-11-08T01:28:59.601Z,98726.84
2022-11-08T01:32:02.931Z,98727.97
2022-11-08T01:35:10.365Z,98729.59
2022-11-08T01:38:14.219Z,98729.06
2022-11-08T01:41:21.464Z,98731.81
2022-11-08T01:44:25.028Z,98720.31
2022-11-08T01:47:29.135Z,98722.50
2022-11-08T01:50:33.832Z,98720.31
2022-11-08T01:53:39.121Z,98723.31
2022-11-08T01:56:43.647Z,98729.59
2022-11-08T01:59:52.317Z,98735.09
2022-11-08T02:03:01.477Z,98726.88
2022-11-08T02:06:09.236Z,98726.63
2022-11-08T02:09:18.840Z,98723.06
2022-11-08T02:12:24.723Z,98713.16
2022-11-08T02:15:28.101Z,98719.50
2022-11-08T02:18:33.710Z,98723.06
2022-11-08T02:21:48.067Z,98725.78
2022-11-08T02:24:54.232Z,98720.88
2022-11-08T02:27:57.616Z,98716.50
2022-11-08T02:31:01.452Z,98713.75
2022-11-08T02:34:04.781Z,98720.06
2022-11-08T02:37:08.943Z,98720.88
2022-11-08T02:40:13.843Z,98723.63
2022-11-08T02:43:17.556Z,98721.16
2022-11-08T02:46:21.205Z,98713.75
2022-11-08T02:49:25.224Z,98723.91
2022-11-08T02:52:28.683Z,98717.59
2022-11-08T02:55:36.079Z,98720.06
2022-11-08T02:58:39.577Z,98715.97
2022-11-08T03:01:43.329Z,98721.47
2022-11-08T03:04:46.873Z,98715.44
2022-11-08T03:07:51.430Z,98710.25
2022-11-08T03:10:56.391Z,98718.19
2022-11-08T03:14:00.130Z,98723.94
2022-11-08T03:17:04.685Z,98723.13
2022-11-08T03:20:09.635Z,98723.13
2022-11-08T03:23:13.040Z,98728.63
2022-11-08T03:26:18.156Z,98723.94
2022-11-08T03:29:21.524Z,98725.06
2022-11-08T03:32:25.268Z,98721.50
2022-11-08T03:35:28.547Z,98725.88
2022-11-08T03:38:32.536Z,98730.25
2022-11-08T03:41:37.166Z,98733.00
2022-11-08T03:44:41.030Z,98728.09
2022-11-08T03:47:47.274Z,98729.19
2022-11-08T03:50:51.784Z,98737.41
2022-11-08T03:53:55.191Z,98726.44
2022-11-08T03:57:00.229Z,98721.78
2022-11-08T04:00:05.482Z,98726.44
2022-11-08T04:03:15.005Z,98729.19
2022-11-08T04:06:18.332Z,98720.97
2022-11-08T04:09:22.252Z,98720.97
2022-11-08T04:12:44.584Z,98719.88
2022-11-08T04:15:55.660Z,98715.78
2022-11-08T04:19:16.598Z,98708.34
2022-11-08T04:22:20.179Z,98712.22
2022-11-08T04:25:23.477Z,98712.22
2022-11-08T04:28:34.421Z,98701.78
2022-11-08T04:31:38.227Z,98705.94
2022-11-08T04:34:41.849Z,98705.13
2022-11-08T04:37:45.248Z,98703.47
2022-11-08T04:40:49.409Z,98696.88
2022-11-08T04:43:57.414Z,98697.38
2022-11-08T04:47:00.943Z,98703.47
2022-11-08T04:50:04.864Z,98699.63
2022-11-08T04:53:08.668Z,98702.38
2022-11-08T04:56:15.193Z,98705.94
2022-11-08T04:59:20.553Z,98702.38
2022-11-08T05:02:24.179Z,98699.63
2022-11-08T05:05:28.036Z,98693.63
2022-11-08T05:08:32.040Z,98691.97
2022-11-08T05:11:36.212Z,98702.94
2022-11-08T05:14:41.188Z,98696.34
2022-11-08T05:17:45.080Z,98705.69
2022-11-08T05:21:12.708Z,98707.84
2022-11-08T05:24:19.399Z,98707.31
2022-11-08T05:27:22.772Z,98708.97
2022-11-08T05:30:27.832Z,98713.03
2022-11-08T05:33:31.207Z,98714.38
2022-11-08T05:36:36.259Z,98716.53
2022-11-08T05:39:39.600Z,98715.41
2022-11-08T05:42:43.225Z,98719.72
2022-11-08T05:45:48.007Z,98716.03
2022-11-08T05:48:52.229Z,98723.66
2022-11-08T05:51:55.572Z,98724.41
2022-11-08T05:54:59.199Z,98726.03
2022-11-08T05:58:02.521Z,98726.03
2022-11-08T06:01:10.965Z,98731.47
2022-11-08T06:04:14.529Z,98728.72
2022-11-08T06:07:18.008Z,98736.38
2022-11-08T06:10:22.182Z,98735.78
2022-11-08T06:13:25.685Z,98737.66
2022-11-08T06:16:30.362Z,98733.75
2022-11-08T06:19:34.024Z,98737.78
2022-11-08T06:22:37.283Z,98735.81
2022-11-08T06:25:45.089Z,98742.56
2022-11-08T06:28:51.319Z,98749.94
2022-11-08T06:31:56.239Z,98746.31
2022-11-08T06:34:59.585Z,98738.06
2022-11-08T06:38:09.033Z,98751.81
2022-11-08T06:41:20.341Z,98746.31
2022-11-08T06:44:24.007Z,98745.78
2022-11-08T06:47:28.744Z,98745.50
2022-11-08T06:50:34.405Z,98749.66
2022-11-08T06:53:37.721Z,98747.47
2022-11-08T06:56:41.338Z,98748.06
2022-11-08T06:59:44.771Z,98758.25
2022-11-08T07:02:55.126Z,98757.13
2022-11-08T07:05:58.643Z,98750.31
2022-11-08T07:09:02.171Z,98751.94
2022-11-08T07:12:05.959Z,98748.69
2022-11-08T07:15:10.525Z,98758.03
2022-11-08T07:18:18.090Z,98754.47
2022-11-08T07:21:21.927Z,98751.47
2022-11-08T07:24:25.456Z,98756.16
2022-11-08T07:27:30.221Z,98753.69
2022-11-08T07:30:36.225Z,98751.75
2022-11-08T07:33:41.417Z,98759.19
2022-11-08T07:36:45.104Z,98758.66
2022-11-08T07:39:48.796Z,98756.72
2022-11-08T07:46:16.705Z,98758.16
2022-11-08T07:49:21.930Z,98762.22
2022-11-08T07:52:26.935Z,98758.94
2022-11-08T07:55:30.291Z,98760.59
2022-11-08T07:58:34.579Z,98762.50
2022-11-08T08:01:38.106Z,98764.16
2022-11-08T08:04:43.534Z,98757.53
2022-11-08T08:07:47.038Z,98761.94
2022-11-08T08:10:50.934Z,98761.94
2022-11-08T08:13:55.837Z,98757.25
2022-11-08T08:16:59.478Z,98753.41
2022-11-08T08:20:05.572Z,98754.75
2022-11-08T08:23:09.543Z,98751.47
2022-11-08T08:26:13.154Z,98753.09
2022-11-08T08:29:16.940Z,98744.88
2022-11-08T08:32:20.157Z,98757.50
2022-11-08T08:35:25.051Z,98747.31
2022-11-08T08:38:28.661Z,98755.56
2022-11-08T08:41:32.501Z,98757.19
2022-11-08T08:44:35.754Z,98751.41
2022-11-08T08:47:39.595Z,98745.94
2022-11-08T08:50:44.460Z,98744.53
2022-11-08T08:53:47.993Z,98742.56
2022-11-08T08:56:51.225Z,98744.53
2022-11-08T09:03:18.464Z,98735.69
2022-11-08T09:06:23.653Z,98739.25
2022-11-08T09:09:26.957Z,98742.81
2022-11-08T09:12:30.814Z,98740.59
2022-11-08T09:15:34.608Z,98743.03
2022-11-08T09:18:38.518Z,98740.28
2022-11-08T09:21:43.379Z,98739.19
2022-11-08T09:24:47.233Z,98743.03
2022-11-08T09:27:50.703Z,98731.75
2022-11-08T09:30:54.386Z,98735.31
2022-11-08T09:33:57.743Z,98735.31
2022-11-08T09:37:02.807Z,98728.44
2022-11-08T09:40:07.406Z,98724.56
2022-11-08T09:43:41.925Z,98730.81
2022-11-08T09:46:53.542Z,98727.56
2022-11-08T09:50:07.034Z,98731.94
2022-11-08T09:53:20.647Z,98729.72
2022-11-08T09:56:30.708Z,98729.19
2022-11-08T09:59:41.123Z,98733.28
2022-11-08T10:02:44.938Z,98731.63
2022-11-08T10:06:23.351Z,98733.22
2022-11-08T10:09:49.756Z,98718.97
2022-11-08T10:13:10.363Z,98736.25
2022-11-08T10:16:30.545Z,98723.03
2022-11-08T10:19:53.126Z,98728.53
2022-11-08T10:23:11.361Z,98721.41
2022-11-08T10:26:24.126Z,98718.38
2022-11-08T10:29:38.810Z,98719.97
2022-11-08T10:32:43.238Z,98719.97
2022-11-08T10:36:00.594Z,98711.16
2022-11-08T10:39:17.144Z,98710.03
2022-11-08T10:42:38.635Z,98712.47
2022-11-08T10:45:42.440Z,98713.59
2022-11-08T10:48:46.123Z,98709.75
2022-11-08T10:51:53.884Z,98711.91
2022-11-08T10:55:00.282Z,98709.66
2022-11-08T10:58:05.133Z,98704.19
2022-11-08T11:01:18.543Z,98710.69
2022-11-08T11:04:29.200Z,98695.31
2022-11-08T11:07:36.812Z,98702.75
2022-11-08T11:10:42.114Z,98699.69
2022-11-08T11:14:06.911Z,98699.41
2022-11-08T11:17:18.700Z,98685.66
2022-11-08T11:20:26.010Z,98690.84
2022-11-08T11:23:44.625Z,98688.34
2022-11-08T11:27:02.457Z,98687.00
2022-11-08T11:30:28.176Z,98683.88
2022-11-08T11:33:33.598Z,98682.31
2022-11-08T11:36:38.108Z,98691.59
2022-11-08T11:39:52.849Z,98686.31
2022-11-08T11:43:11.155Z,98681.31
2022-11-08T11:46:24.709Z,98671.44
2022-11-08T11:49:32.034Z,98678.06
2022-11-08T11:52:35.852Z,98675.31
2022-11-08T11:56:06.226Z,98671.66
2022-11-08T11:59:46.818Z,98666.47
2022-11-08T12:03:31.928Z,98663.72
2022-11-08T12:06:50.355Z,98667.06
2022-11-08T12:10:25.657Z,98663.13
2022-11-08T12:13:53.994Z,98654.34
2022-11-08T12:17:21.325Z,98654.59
2022-11-08T12:20:44.016Z,98646.84
2022-11-08T12:24:22.330Z,98643.81
2022-11-08T12:27:41.238Z,98643.28
2022-11-08T12:30:58.121Z,98640.25
2022-11-08T12:34:24.094Z,98634.63
2022-11-08T12:37:55.393Z,98624.75
2022-11-08T12:41:15.960Z,98632.69
2022-11-08T12:44:50.322Z,98627.72
2022-11-08T12:48:06.443Z,98628.84
2022-11-08T12:51:23.830Z,98616.44
2022-11-08T12:54:39.102Z,98622.16
2022-11-08T12:57:46.386Z,98614.50
2022-11-08T13:00:54.165Z,98619.69
2022-11-08T13:04:33.465Z,98629.47
2022-11-08T13:07:49.250Z,98616.66
2022-11-08T13:11:02.322Z,98624.25
2022-11-08T13:14:06.431Z,98623.84
2022-11-08T13:17:23.014Z,98626.50
2022-11-08T13:20:41.482Z,98620.88
2022-11-08T13:23:44.795Z,98619.81
2022-11-08T13:26:50.199Z,98612.44
2022-11-08T13:29:54.662Z,98615.47
2022-11-08T13:33:12.608Z,98606.63
2022-11-08T13:36:34.760Z,98604.00
2022-11-08T13:40:07.677Z,98610.69
2022-11-08T13:43:37.062Z,98606.16
2022-11-08T13:46:49.686Z,98612.59
2022-11-08T13:49:53.067Z,98606.38
2022-11-08T13:53:06.699Z,98611.03
2022-11-08T13:56:49.943Z,98605.88
2022-11-08T13:59:59.076Z,98603.78
2022-11-08T14:03:02.626Z,98598.88
2022-11-08T14:06:21.005Z,98597.22
2022-11-08T14:09:40.990Z,98596.44
2022-11-08T14:12:56.473Z,98591.78
2022-11-08T14:16:08.568Z,98590.75
2022-11-08T14:19:22.492Z,98586.13
2022-11-08T14:22:30.706Z,98595.44
2022-11-08T14:25:36.942Z,98601.19
2022-11-08T14:28:43.026Z,98597.91
2022-11-08T14:31:48.469Z,98597.38
2022-11-08T14:34:51.701Z,98597.66
2022-11-08T14:37:56.065Z,98608.09
2022-11-08T14:41:03.181Z,98598.00
2022-11-08T14:44:07.033Z,98598.53
2022-11-08T14:47:28.689Z,98601.28
2022-11-08T14:50:36.009Z,98595.72
2022-11-08T14:53:48.138Z,98580.38
2022-11-08T14:56:52.236Z,98575.19
2022-11-08T14:59:56.900Z,98589.19
2022-11-08T15:03:06.911Z,98581.56
2022-11-08T15:06:14.283Z,98581.94
2022-11-08T15:09:26.355Z,98582.00
2022-11-08T15:12:29.966Z,98582.66
2022-11-08T15:15:35.622Z,98580.88
2022-11-08T15:18:43.873Z,98586.72
2022-11-08T15:21:49.561Z,98573.16
2022-11-08T15:25:03.618Z,98583.69
2022-11-08T15:28:22.875Z,98579.47
2022-11-08T15:31:29.716Z,98583.03
2022-11-08T15:34:42.004Z,98573.38
2022-11-08T15:37:46.686Z,98575.00
2022-11-08T15:40:52.843Z,98570.03
2022-11-08T15:44:15.882Z,98568.03
2022-11-08T15:47:38.545Z,98564.16
2022-11-08T15:50:43.271Z,98555.69
2022-11-08T15:53:46.812Z,98560.91
2022-11-08T15:56:52.590Z,98561.44
2022-11-08T15:59:56.474Z,98550.44
2022-11-08T16:03:00.509Z,98552.06
2022-11-08T16:06:05.945Z,98555.63
2022-11-08T16:09:09.374Z,98554.00
2022-11-08T16:12:16.787Z,98566.63
2022-11-08T16:15:24.927Z,98568.84
2022-11-08T16:18:32.294Z,98567.50
2022-11-08T16:21:37.029Z,98566.16
2022-11-08T16:24:40.476Z,98571.66
2022-11-08T16:27:43.929Z,98568.63
2022-11-08T16:30:47.997Z,98564.25
2022-11-08T16:33:53.969Z,98565.66
2022-11-08T16:36:59.168Z,98571.47
2022-11-08T16:40:02.847Z,98572.06
2022-11-08T16:43:07.636Z,98564.91
2022-11-08T16:46:11.583Z,98572.63
2022-11-08T16:49:23.218Z,98573.16
2022-11-08T16:52:28.043Z,98571.00
2022-11-08T16:55:31.647Z,98577.09
2022-11-08T16:58:34.900Z,98585.31
2022-11-08T17:01:39.584Z,98586.44
2022-11-08T17:04:43.034Z,98589.16
2022-11-08T17:07:51.012Z,98593.03
2022-11-08T17:10:54.879Z,98593.66
2022-11-08T17:13:58.526Z,98593.94
2022-11-08T17:17:02.068Z,98590.38
2022-11-08T17:20:07.420Z,98578.56
2022-11-08T17:23:12.978Z,98586.81
2022-11-08T17:26:16.795Z,98589.31
2022-11-08T17:29:20.054Z,98586.06
2022-11-08T17:32:23.776Z,98590.72
2022-11-08T17:35:27.547Z,98579.22
2022-11-08T17:38:32.440Z,98575.69
2022-11-08T17:41:35.762Z,98582.59
2022-11-08T17:44:40.384Z,98586.16
2022-11-08T17:47:43.812Z,98584.50
2022-11-08T17:50:48.884Z,98585.34
2022-11-08T17:53:53.548Z,98584.22
2022-11-08T17:56:57.972Z,98586.16
2022-11-08T18:00:02.130Z,98592.47
2022-11-08T18:03:16.190Z,98586.16
2022-11-08T18:06:19.654Z,98587.78
2022-11-08T18:09:25.351Z,98593.75
2022-11-08T18:12:28.708Z,98596.03
2022-11-08T18:15:32.393Z,98597.13
2022-11-08T18:18:35.714Z,98594.09
2022-11-08T18:21:39.267Z,98592.16
2022-11-08T18:24:46.129Z,98588.81
2022-11-08T18:27:54.132Z,98589.41
2022-11-08T18:31:05.792Z,98580.84
2022-11-08T18:34:10.097Z,98587.97
2022-11-08T18:37:13.664Z,98592.06
2022-11-08T18:40:19.206Z,98585.47
2022-11-08T18:43:22.480Z,98582.50
2022-11-08T18:46:32.638Z,98584.72
2022-11-08T18:49:36.037Z,98589.41
2022-11-08T18:52:40.331Z,98593.75
2022-11-08T18:55:47.262Z,98594.28
2022-11-08T18:58:52.444Z,98592.66
2022-11-08T19:01:55.992Z,98587.16
2022-11-08T19:05:00.406Z,98584.94
2022-11-08T19:08:04.294Z,98586.59
2022-11-08T19:11:13.351Z,98575.84
2022-11-08T19:14:16.661Z,98579.91
2022-11-08T19:17:20.605Z,98587.88
2022-11-08T19:20:25.397Z,98587.03
2022-11-08T19:23:29.580Z,98587.63
2022-11-08T19:26:34.263Z,98584.88
2022-11-08T19:29:37.999Z,98580.81
2022-11-08T19:32:41.927Z,98578.56
2022-11-08T19:35:46.825Z,98578.88
2022-11-08T19:38:52.201Z,98589.56
2022-11-08T19:41:57.161Z,98586.81
2022-11-08T19:45:01.812Z,98581.31
2022-11-08T19:48:11.078Z,98582.16
2022-11-08T19:51:17.953Z,98572.78
2022-11-08T19:54:23.598Z,98582.97
2022-11-08T19:57:31.231Z,98573.81
2022-11-08T20:00:38.577Z,98574.94
2022-11-08T20:03:43.418Z,98579.63
2022-11-08T20:06:48.537Z,98573.81
2022-11-08T20:09:52.849Z,98582.66
2022-11-08T20:13:00.075Z,98581.84
2022-11-08T20:16:11.263Z,98580.94
2022-11-08T20:19:18.247Z,98576.56
2022-11-08T20:22:22.532Z,98572.41
2022-11-08T20:25:26.262Z,98566.09
2022-11-08T20:28:31.149Z,98574.34
2022-11-08T20:31:35.523Z,98580.13
2022-11-08T20:34:38.868Z,98579.91
2022-11-08T20:37:42.836Z,98587.94
2022-11-08T20:40:47.026Z,98582.44
2022-11-08T20:43:52.103Z,98579.97
2022-11-08T20:46:55.436Z,98573.16
2022-11-08T20:49:59.266Z,98567.13
2022-11-08T20:53:02.642Z,98558.09
2022-11-08T20:56:09.616Z,98563.56
2022-11-08T20:59:14.843Z,98561.16
2022-11-08T21:02:18.592Z,98564.19
2022-11-08T21:05:21.878Z,98566.41
2022-11-08T21:11:50.581Z,98564.41
2022-11-08T21:14:55.758Z,98555.28
2022-11-08T21:17:59.082Z,98564.63
2022-11-08T21:21:06.234Z,98548.97
2022-11-08T21:24:09.807Z,98554.47
2022-11-08T21:27:14.258Z,98556.41
2022-11-08T21:30:19.360Z,98566.25
2022-11-08T21:33:23.729Z,98563.00
2022-11-08T21:36:28.956Z,98565.75
2022-11-08T21:39:32.589Z,98563.00
2022-11-08T21:42:39.365Z,98563.28
2022-11-08T21:45:46.604Z,98555.56
2022-11-08T21:48:56.641Z,98565.97
2022-11-08T21:52:00.537Z,98564.63
2022-11-08T21:55:04.042Z,98563.50
2022-11-08T21:58:07.827Z,98559.13
2022-11-08T22:01:12.546Z,98554.16
2022-11-08T22:04:16.431Z,98563.50
2022-11-08T22:07:19.822Z,98569.53
2022-11-08T22:10:23.371Z,98566.78
2022-11-08T22:13:26.721Z,98561.28
2022-11-08T22:16:31.583Z,98558.56
2022-11-08T22:19:35.027Z,98561.28
2022-11-08T22:22:38.527Z,98555.81
2022-11-08T22:25:44.090Z,98561.81
2022-11-08T22:28:47.735Z,98553.88
2022-11-08T22:31:52.369Z,98556.31
2022-11-08T22:34:55.814Z,98546.47
2022-11-08T22:37:59.176Z,98561.00
2022-11-08T22:41:02.898Z,98560.19
2022-11-08T22:44:11.800Z,98558.56
2022-11-08T22:47:17.354Z,98562.94
2022-11-08T22:50:20.509Z,98552.25
2022-11-08T22:53:25.624Z,98556.91
2022-11-08T22:56:29.335Z,98547.88
2022-11-08T22:59:32.855Z,98559.66
2022-11-08T23:02:37.479Z,98558.56
2022-11-08T23:05:42.593Z,98555.28
2022-11-08T23:08:48.659Z,98552.25
2022-11-08T23:12:09.854Z,98554.47
2022-11-08T23:15:30.661Z,98551.19
2022-11-08T23:18:35.588Z,98537.47
2022-11-08T23:21:56.390Z,98542.16
2022-11-08T23:25:00.243Z,98547.63
2022-11-08T23:28:21.048Z,98551.19
2022-11-08T23:31:36.553Z,98548.75
2022-11-08T23:34:41.274Z,98542.97
2022-11-08T23:37:45.337Z,98550.66
2022-11-08T23:41:06.013Z,98549.28
2022-11-08T23:44:25.215Z,98549.84
2022-11-08T23:47:28.539Z,98548.75
2022-11-08T23:50:33.350Z,98554.75
2022-11-08T23:53:39.766Z,98545.72
2022-11-08T23:56:43.516Z,98553.94
2022-11-08T23:59:46.837Z,98544.88
